createdAt,value
2024-02-02T00:01:47.378Z,7.20
2024-02-02T00:04:14.133Z,13.30
2024-02-02T00:06:40.987Z,14.15
2024-02-02T00:09:08.158Z,7.68
2024-02-02T00:11:35.276Z,11.85
2024-02-02T00:14:03.218Z,13.02
2024-02-02T00:16:30.084Z,15.30
2024-02-02T00:18:57.177Z,15.98
2024-02-02T00:21:24.160Z,8.38
2024-02-02T00:23:50.944Z,13.30
2024-02-02T00:26:17.700Z,13.50
2024-02-02T00:28:44.450Z,19.23
2024-02-02T00:31:11.429Z,10.93
2024-02-02T00:36:05.516Z,10.02
2024-02-02T00:38:32.350Z,11.30
2024-02-02T00:40:59.176Z,10.88
2024-02-02T00:43:26.218Z,12.82
2024-02-02T00:45:52.939Z,21.98
2024-02-02T00:48:20.011Z,6.40
2024-02-02T00:50:47.252Z,13.75
2024-02-02T00:53:14.186Z,12.77
2024-02-02T00:55:40.926Z,15.73
2024-02-02T00:58:07.718Z,22.42
2024-02-02T01:00:34.603Z,8.57
2024-02-02T01:03:01.765Z,8.85
2024-02-02T01:05:29.867Z,10.65
2024-02-02T01:07:56.662Z,13.43
2024-02-02T01:10:23.559Z,9.68
2024-02-02T01:12:50.457Z,12.55
2024-02-02T01:15:17.787Z,7.88
2024-02-02T01:17:46.718Z,12.35
2024-02-02T01:20:15.076Z,7.28
2024-02-02T01:22:42.356Z,15.05
2024-02-02T01:25:18.273Z,17.35
2024-02-02T01:27:45.526Z,8.45
2024-02-02T01:30:17.143Z,10.13
2024-02-02T01:32:44.009Z,12.03
2024-02-02T01:35:10.986Z,11.63
2024-02-02T01:37:37.801Z,10.63
2024-02-02T01:40:05.148Z,13.63
2024-02-02T01:42:31.960Z,8.98
2024-02-02T01:44:58.753Z,6.57
2024-02-02T01:47:25.854Z,9.25
2024-02-02T01:49:53.231Z,9.45
2024-02-02T01:52:20.321Z,10.65
2024-02-02T01:54:47.128Z,10.77
2024-02-02T01:57:14.067Z,11.35
2024-02-02T01:59:40.903Z,8.73
2024-02-02T02:02:08.625Z,8.07
2024-02-02T02:04:35.530Z,13.48
2024-02-02T02:07:04.049Z,9.27
2024-02-02T02:09:31.016Z,11.32
2024-02-02T02:11:57.871Z,11.48
2024-02-02T02:14:24.801Z,9.93
2024-02-02T02:16:51.691Z,11.38
2024-02-02T02:19:18.865Z,7.97
2024-02-02T02:21:45.928Z,7.15
2024-02-02T02:24:13.594Z,9.65
2024-02-02T02:26:41.802Z,15.23
2024-02-02T02:29:08.979Z,14.73
2024-02-02T02:31:35.793Z,16.25
2024-02-02T02:34:02.715Z,21.27
2024-02-02T02:36:29.672Z,13.68
2024-02-02T02:38:56.514Z,11.90
2024-02-02T02:41:23.337Z,16.83
2024-02-02T02:43:50.124Z,12.40
2024-02-02T02:46:16.867Z,18.67
2024-02-02T02:48:43.803Z,15.52
2024-02-02T02:51:10.680Z,13.75
2024-02-02T02:53:37.407Z,9.50
2024-02-02T02:56:04.549Z,11.15
2024-02-02T02:58:31.291Z,5.72
2024-02-02T03:00:58.136Z,8.57
2024-02-02T03:03:24.924Z,11.10
2024-02-02T03:05:51.796Z,7.40
2024-02-02T03:08:18.651Z,6.30
2024-02-02T03:10:45.496Z,12.20
2024-02-02T03:13:12.366Z,6.68
2024-02-02T03:15:41.174Z,6.57
2024-02-02T03:18:09.153Z,7.78
2024-02-02T03:20:36.151Z,4.47
2024-02-02T03:23:02.953Z,7.10
2024-02-02T03:25:29.755Z,8.02
2024-02-02T03:27:56.535Z,5.15
2024-02-02T03:30:23.423Z,10.85
2024-02-02T03:32:50.908Z,5.75
2024-02-02T03:35:17.881Z,8.93
2024-02-02T03:37:44.628Z,27.23
2024-02-02T03:40:12.132Z,5.47
2024-02-02T03:42:38.998Z,18.42
2024-02-02T03:45:07.013Z,8.32
2024-02-02T03:47:34.056Z,10.50
2024-02-02T03:50:00.965Z,4.75
2024-02-02T03:52:28.598Z,6.78
2024-02-02T03:54:55.474Z,4.20
2024-02-02T03:57:22.739Z,5.97
2024-02-02T03:59:49.703Z,7.20
2024-02-02T04:02:16.595Z,7.35
2024-02-02T04:04:44.042Z,7.18
2024-02-02T04:07:10.877Z,7.22
2024-02-02T04:09:37.658Z,13.10
2024-02-02T04:12:04.937Z,8.35
2024-02-02T04:14:31.730Z,5.93
2024-02-02T04:16:58.556Z,6.45
2024-02-02T04:19:25.414Z,5.82
2024-02-02T04:21:52.210Z,4.18
2024-02-02T04:24:19.119Z,3.13
2024-02-02T04:26:45.947Z,7.38
2024-02-02T04:29:12.720Z,4.78
2024-02-02T04:31:39.587Z,3.53
2024-02-02T04:34:06.461Z,3.42
2024-02-02T04:36:33.468Z,7.13
2024-02-02T04:39:00.279Z,2.20
2024-02-02T04:41:27.139Z,3.45
2024-02-02T04:43:53.913Z,3.30
2024-02-02T04:46:20.655Z,5.18
2024-02-02T04:48:47.649Z,2.17
2024-02-02T04:51:14.723Z,4.68
2024-02-02T04:53:41.599Z,2.58
2024-02-02T04:56:08.378Z,4.93
2024-02-02T04:58:35.268Z,1.95
2024-02-02T05:01:02.109Z,3.15
2024-02-02T05:03:31.739Z,3.22
2024-02-02T05:05:58.936Z,5.78
2024-02-02T05:08:25.851Z,4.20
2024-02-02T05:10:52.683Z,2.03
2024-02-02T05:13:19.491Z,3.03
2024-02-02T05:15:47.163Z,3.65
2024-02-02T05:18:14.168Z,4.43
2024-02-02T05:20:41.080Z,2.03
2024-02-02T05:23:07.818Z,1.98
2024-02-02T05:25:35.918Z,2.47
2024-02-02T05:28:05.118Z,1.88
2024-02-02T05:30:31.966Z,1.42
2024-02-02T05:32:58.974Z,4.28
2024-02-02T05:35:25.890Z,3.75
2024-02-02T05:37:52.845Z,0.57
2024-02-02T05:40:19.698Z,3.28
2024-02-02T05:42:46.946Z,2.67
2024-02-02T05:45:14.254Z,4.88
2024-02-02T05:47:41.148Z,4.53
2024-02-02T05:50:08.446Z,2.90
2024-02-02T05:52:35.305Z,7.93
2024-02-02T05:55:02.790Z,2.95
2024-02-02T05:57:30.075Z,2.72
2024-02-02T05:59:57.033Z,3.85
2024-02-02T06:02:25.097Z,8.90
2024-02-02T06:04:52.392Z,1.30
2024-02-02T06:07:19.375Z,1.70
2024-02-02T06:09:46.366Z,2.03
2024-02-02T06:12:13.204Z,1.75
2024-02-02T06:14:40.929Z,3.03
2024-02-02T06:17:10.288Z,1.75
2024-02-02T06:19:37.446Z,1.45
2024-02-02T06:22:04.324Z,1.65
2024-02-02T06:24:31.138Z,2.42
2024-02-02T06:26:58.036Z,1.38
2024-02-02T06:29:27.307Z,2.13
2024-02-02T06:31:55.601Z,1.48
2024-02-02T06:34:22.514Z,2.05
2024-02-02T06:36:49.526Z,1.52
2024-02-02T06:39:16.566Z,1.30
2024-02-02T06:41:43.365Z,1.42
2024-02-02T06:44:10.101Z,1.13
2024-02-02T06:46:37.056Z,1.15
2024-02-02T06:49:03.954Z,2.20
2024-02-02T06:51:30.887Z,2.38
2024-02-02T06:53:57.715Z,2.95
2024-02-02T06:56:39.952Z,1.10
2024-02-02T06:59:08.300Z,2.58
2024-02-02T07:01:35.673Z,0.98
2024-02-02T07:04:04.477Z,2.60
2024-02-02T07:06:36.194Z,2.97
2024-02-02T07:09:19.975Z,1.63
2024-02-02T07:12:03.236Z,2.05
2024-02-02T07:14:51.147Z,2.20
2024-02-02T07:17:39.226Z,2.47
2024-02-02T07:20:09.962Z,3.92
2024-02-02T07:22:42.206Z,1.10
2024-02-02T07:25:14.647Z,2.72
2024-02-02T07:27:44.252Z,1.77
2024-02-02T07:30:24.872Z,4.10
2024-02-02T07:32:51.792Z,2.22
2024-02-02T07:35:35.126Z,1.70
2024-02-02T07:38:05.604Z,3.13
2024-02-02T07:40:48.141Z,3.50
2024-02-02T07:43:14.930Z,1.40
2024-02-02T07:45:41.764Z,3.70
2024-02-02T07:48:08.967Z,4.03
2024-02-02T07:50:35.865Z,2.58
2024-02-02T07:53:02.740Z,3.15
2024-02-02T07:55:29.509Z,2.97
2024-02-02T07:57:56.318Z,1.42
2024-02-02T08:00:23.318Z,1.75
2024-02-02T08:02:50.104Z,1.60
2024-02-02T08:05:16.827Z,1.75
2024-02-02T08:07:43.606Z,1.50
2024-02-02T08:10:10.627Z,2.75
2024-02-02T08:12:38.835Z,2.85
2024-02-02T08:15:06.404Z,1.42
2024-02-02T08:17:33.279Z,1.48
2024-02-02T08:20:00.219Z,3.47
2024-02-02T08:22:27.093Z,4.68
2024-02-02T08:24:53.899Z,2.33
2024-02-02T08:27:21.579Z,2.75
2024-02-02T08:29:49.789Z,2.20
2024-02-02T08:32:16.818Z,2.72
2024-02-02T08:34:43.680Z,2.55
2024-02-02T08:37:10.568Z,2.40
2024-02-02T08:39:37.470Z,1.75
2024-02-02T08:42:10.934Z,2.47
2024-02-02T08:44:37.787Z,2.33
2024-02-02T08:47:04.706Z,3.67
2024-02-02T08:50:00.800Z,4.90
2024-02-02T08:52:35.382Z,12.35
2024-02-02T08:55:05.704Z,6.35
2024-02-02T08:57:35.283Z,4.28
2024-02-02T09:00:14.971Z,3.47
2024-02-02T09:02:54.219Z,14.85
2024-02-02T09:05:26.081Z,5.78
2024-02-02T09:08:22.034Z,7.75
2024-02-02T09:11:01.131Z,6.30
2024-02-02T09:13:33.567Z,8.10
2024-02-02T09:16:00.488Z,5.97
2024-02-02T09:18:41.060Z,7.72
2024-02-02T09:21:08.977Z,4.57
2024-02-02T09:23:37.709Z,2.92
2024-02-02T09:26:10.311Z,3.28
2024-02-02T09:31:07.929Z,6.65
2024-02-02T09:33:35.154Z,4.00
2024-02-02T09:36:08.095Z,3.78
2024-02-02T09:38:35.908Z,2.67
2024-02-02T09:41:02.703Z,2.47
2024-02-02T09:43:38.734Z,2.58
2024-02-02T09:46:39.873Z,3.08
2024-02-02T09:49:28.054Z,3.20
2024-02-02T09:52:15.654Z,2.25
2024-02-02T09:54:51.525Z,2.47
2024-02-02T09:57:37.932Z,2.25
2024-02-02T10:00:16.889Z,2.05
2024-02-02T10:02:43.788Z,1.77
2024-02-02T10:05:40.772Z,4.25
2024-02-02T10:08:22.626Z,2.10
2024-02-02T10:11:10.515Z,1.48
2024-02-02T10:14:02.736Z,8.50
2024-02-02T10:16:56.457Z,14.05
2024-02-02T10:19:41.791Z,4.22
2024-02-02T10:22:35.736Z,2.38
2024-02-02T10:25:26.995Z,5.50
2024-02-02T10:28:25.942Z,1.92
2024-02-02T10:31:27.733Z,2.80
2024-02-02T10:33:54.549Z,1.05
2024-02-02T10:36:42.953Z,2.20
2024-02-02T10:39:28.838Z,2.88
2024-02-02T10:42:43.858Z,2.05
2024-02-02T10:45:41.588Z,1.98
2024-02-02T10:48:08.543Z,1.65
2024-02-02T10:50:49.766Z,1.52
2024-02-02T10:53:40.362Z,2.08
2024-02-02T10:56:28.051Z,1.48
2024-02-02T10:59:40.050Z,1.63
2024-02-02T11:02:33.206Z,2.88
2024-02-02T11:05:18.549Z,1.30
2024-02-02T11:07:50.125Z,1.73
2024-02-02T11:10:22.005Z,2.22
2024-02-02T11:13:16.276Z,2.15
2024-02-02T11:16:02.042Z,3.35
2024-02-02T11:18:56.882Z,0.95
2024-02-02T11:21:50.702Z,2.45
2024-02-02T11:24:27.303Z,4.32
2024-02-02T11:27:05.762Z,1.38
2024-02-02T11:29:59.815Z,3.45
2024-02-02T11:32:48.637Z,1.70
2024-02-02T11:35:45.402Z,0.95
2024-02-02T11:40:43.410Z,0.75
2024-02-02T11:43:13.632Z,2.75
2024-02-02T11:45:43.940Z,1.17
2024-02-02T11:48:31.555Z,0.73
2024-02-02T11:50:59.099Z,0.93
2024-02-02T11:53:38.357Z,1.80
2024-02-02T11:56:11.666Z,2.20
2024-02-02T11:58:45.253Z,0.90
2024-02-02T12:01:26.944Z,0.95
2024-02-02T12:09:35.739Z,1.13
2024-02-02T12:12:13.199Z,1.17
2024-02-02T12:14:47.684Z,2.10
2024-02-02T12:17:14.829Z,1.95
2024-02-02T12:19:41.891Z,2.85
2024-02-02T12:22:08.789Z,0.60
2024-02-02T12:24:37.103Z,0.85
2024-02-02T12:27:05.477Z,0.70
2024-02-02T12:29:33.290Z,0.30
2024-02-02T12:32:01.114Z,0.50
2024-02-02T12:34:28.186Z,2.33
2024-02-02T12:36:55.347Z,0.50
2024-02-02T12:39:22.938Z,0.70
2024-02-02T12:41:51.690Z,0.60
2024-02-02T12:44:18.708Z,0.90
2024-02-02T12:46:46.200Z,0.40
2024-02-02T12:49:14.105Z,0.90
2024-02-02T12:51:41.657Z,1.27
2024-02-02T12:54:11.205Z,0.90
2024-02-02T12:56:38.762Z,1.23
2024-02-02T12:59:06.534Z,0.52
2024-02-02T13:01:33.966Z,1.17
2024-02-02T13:04:01.333Z,0.20
2024-02-02T13:06:29.309Z,0.70
2024-02-02T13:09:20.803Z,0.35
2024-02-02T13:11:48.599Z,0.70
2024-02-02T13:14:28.888Z,0.40
2024-02-02T13:17:14.941Z,0.25
2024-02-02T13:19:47.103Z,1.65
2024-02-02T13:25:03.633Z,0.38
2024-02-02T13:27:31.405Z,0.73
2024-02-02T13:30:00.744Z,0.35
2024-02-02T13:32:31.189Z,0.55
2024-02-02T13:35:01.903Z,0.40
2024-02-02T13:37:34.933Z,0.90
2024-02-02T13:40:04.136Z,0.30
2024-02-02T13:42:36.725Z,0.75
2024-02-02T13:45:11.100Z,0.52
2024-02-02T13:47:39.212Z,2.83
2024-02-02T13:50:21.136Z,0.35
2024-02-02T13:52:50.804Z,1.40
2024-02-02T13:55:19.862Z,0.40
2024-02-02T13:57:47.044Z,0.20
2024-02-02T14:00:16.516Z,0.70
2024-02-02T14:02:43.401Z,0.50
2024-02-02T14:05:12.101Z,2.10
2024-02-02T14:07:39.283Z,1.58
2024-02-02T14:10:07.430Z,0.70
2024-02-02T14:12:38.310Z,4.05
2024-02-02T14:15:06.922Z,0.32
2024-02-02T14:17:34.130Z,2.67
2024-02-02T14:20:10.237Z,2.25
2024-02-02T14:22:37.239Z,1.17
2024-02-02T14:25:06.659Z,0.75
2024-02-02T14:27:40.448Z,0.40
2024-02-02T14:30:09.569Z,0.70
2024-02-02T14:32:37.636Z,0.98
2024-02-02T14:35:05.883Z,0.63
2024-02-02T14:37:33.671Z,0.93
2024-02-02T14:40:01.841Z,2.60
2024-02-02T14:42:29.011Z,0.22
2024-02-02T14:44:56.929Z,9.68
2024-02-02T14:47:23.858Z,0.22
2024-02-02T14:49:50.956Z,0.38
2024-02-02T14:52:18.020Z,0.55
2024-02-02T14:54:47.632Z,0.28
2024-02-02T14:57:18.199Z,1.13
2024-02-02T14:59:51.042Z,0.25
2024-02-02T15:02:18.127Z,1.10
2024-02-02T15:04:45.724Z,0.63
2024-02-02T15:07:13.003Z,0.40
2024-02-02T15:09:42.318Z,1.35
2024-02-02T15:12:10.031Z,0.32
2024-02-02T15:14:36.991Z,1.15
2024-02-02T15:17:04.747Z,0.30
2024-02-02T15:19:32.269Z,0.52
2024-02-02T15:21:59.255Z,1.73
2024-02-02T15:24:26.159Z,2.38
2024-02-02T15:26:53.000Z,0.77
2024-02-02T15:29:19.839Z,1.35
2024-02-02T15:31:46.709Z,0.70
2024-02-02T15:34:14.442Z,0.32
2024-02-02T15:36:41.378Z,2.92
2024-02-02T15:39:22.856Z,0.82
2024-02-02T15:41:56.968Z,0.40
2024-02-02T15:44:25.226Z,0.40
2024-02-02T15:46:52.020Z,0.28
2024-02-02T15:49:19.478Z,0.25
2024-02-02T15:51:46.499Z,0.60
2024-02-02T15:54:13.373Z,1.38
2024-02-02T15:56:40.514Z,0.47
2024-02-02T15:59:08.124Z,0.40
2024-02-02T16:01:35.241Z,0.38
2024-02-02T16:04:03.405Z,0.60
2024-02-02T16:06:30.634Z,0.38
2024-02-02T16:08:57.431Z,1.75
2024-02-02T16:11:24.395Z,0.70
2024-02-02T16:13:52.897Z,1.77
2024-02-02T16:16:20.614Z,0.82
2024-02-02T16:18:47.775Z,4.80
2024-02-02T16:21:14.783Z,1.13
2024-02-02T16:23:41.834Z,1.35
2024-02-02T16:26:08.960Z,1.75
2024-02-02T16:28:35.932Z,0.77
2024-02-02T16:31:02.841Z,0.15
2024-02-02T16:33:30.034Z,0.75
2024-02-02T16:35:57.212Z,0.30
2024-02-02T16:38:24.060Z,2.15
2024-02-02T16:40:51.137Z,2.92
2024-02-02T16:43:18.270Z,1.17
2024-02-02T16:45:45.457Z,0.50
2024-02-02T16:48:12.523Z,0.82
2024-02-02T16:50:39.587Z,0.52
2024-02-02T16:53:10.931Z,0.40
2024-02-02T16:55:38.931Z,0.73
2024-02-02T16:58:06.035Z,0.50
2024-02-02T17:00:32.967Z,0.25
2024-02-02T17:02:59.856Z,0.30
2024-02-02T17:05:26.771Z,1.00
2024-02-02T17:07:53.568Z,1.10
2024-02-02T17:10:20.545Z,0.40
2024-02-02T17:12:47.523Z,0.88
2024-02-02T17:15:14.517Z,0.90
2024-02-02T17:17:42.389Z,2.28
2024-02-02T17:20:11.499Z,0.43
2024-02-02T17:22:44.465Z,0.40
2024-02-02T17:25:12.319Z,0.80
2024-02-02T17:27:39.378Z,2.30
2024-02-02T17:30:07.978Z,3.30
2024-02-02T17:32:39.627Z,1.35
2024-02-02T17:35:08.066Z,0.40
2024-02-02T17:37:35.238Z,0.43
2024-02-02T17:40:02.537Z,0.82
2024-02-02T17:42:29.525Z,0.63
2024-02-02T17:44:56.582Z,0.30
2024-02-02T17:47:23.601Z,0.40
2024-02-02T17:49:52.443Z,1.40
2024-02-02T17:54:50.107Z,1.65
2024-02-02T17:57:17.273Z,0.32
2024-02-02T17:59:44.201Z,0.90
2024-02-02T18:02:12.012Z,0.60
2024-02-02T18:04:38.896Z,1.45
2024-02-02T18:07:06.845Z,0.32
2024-02-02T18:09:35.609Z,0.70
2024-02-02T18:12:04.658Z,1.23
2024-02-02T18:14:31.768Z,3.20
2024-02-02T18:16:58.517Z,0.55
2024-02-02T18:19:25.746Z,0.65
2024-02-02T18:21:54.356Z,0.93
2024-02-02T18:24:21.198Z,0.70
2024-02-02T18:26:48.166Z,0.70
2024-02-02T18:29:14.982Z,1.55
2024-02-02T18:31:42.815Z,0.65
2024-02-02T18:34:10.501Z,0.75
2024-02-02T18:36:43.888Z,0.47
2024-02-02T18:39:13.191Z,1.42
2024-02-02T18:41:40.038Z,0.25
2024-02-02T18:44:08.691Z,0.45
2024-02-02T18:46:35.698Z,0.30
2024-02-02T18:49:07.067Z,0.90
2024-02-02T18:51:34.290Z,0.55
2024-02-02T18:54:02.593Z,0.73
2024-02-02T18:56:31.587Z,1.83
2024-02-02T18:58:58.560Z,0.38
2024-02-02T19:01:26.452Z,2.25
2024-02-02T19:03:53.598Z,4.95
2024-02-02T19:06:21.000Z,0.45
2024-02-02T19:08:48.129Z,1.88
2024-02-02T19:11:19.938Z,1.67
2024-02-02T19:13:47.105Z,0.35
2024-02-02T19:16:21.870Z,1.25
2024-02-02T19:18:49.794Z,2.28
2024-02-02T19:21:29.158Z,1.02
2024-02-02T19:23:56.981Z,3.15
2024-02-02T19:26:23.961Z,2.63
2024-02-02T19:28:51.092Z,1.00
2024-02-02T19:31:21.044Z,0.75
2024-02-02T19:33:48.807Z,0.90
2024-02-02T19:36:23.144Z,1.00
2024-02-02T19:38:51.048Z,1.38
2024-02-02T19:41:23.161Z,2.15
2024-02-02T19:43:51.341Z,1.08
2024-02-02T19:46:30.006Z,3.40
2024-02-02T19:48:58.807Z,1.02
2024-02-02T19:51:27.516Z,1.25
2024-02-02T19:53:55.326Z,3.15
2024-02-02T19:56:22.841Z,0.85
2024-02-02T19:58:50.454Z,1.48
2024-02-02T20:01:19.728Z,1.17
2024-02-02T20:03:48.761Z,0.70
2024-02-02T20:06:20.292Z,1.40
2024-02-02T20:08:53.986Z,1.67
2024-02-02T20:11:27.037Z,3.88
2024-02-02T20:13:54.086Z,1.77
2024-02-02T20:16:21.797Z,0.75
2024-02-02T20:18:50.305Z,0.60
2024-02-02T20:21:18.782Z,1.50
2024-02-02T20:23:46.640Z,2.45
2024-02-02T20:26:20.275Z,3.13
2024-02-02T20:28:49.218Z,1.15
2024-02-02T20:31:16.343Z,1.10
2024-02-02T20:33:43.292Z,1.58
2024-02-02T20:36:10.827Z,0.73
2024-02-02T20:38:38.094Z,0.45
2024-02-02T20:41:06.187Z,1.55
2024-02-02T20:43:33.504Z,1.85
2024-02-02T20:46:00.829Z,1.40
2024-02-02T20:48:27.829Z,1.23
2024-02-02T20:50:56.161Z,2.00
2024-02-02T20:53:23.196Z,1.58
2024-02-02T20:55:50.377Z,1.50
2024-02-02T20:58:17.623Z,1.10
2024-02-02T21:00:46.062Z,4.47
2024-02-02T21:03:14.377Z,3.22
2024-02-02T21:05:41.704Z,5.57
2024-02-02T21:08:09.457Z,4.00
2024-02-02T21:10:39.190Z,0.65
2024-02-02T21:13:06.202Z,0.95
2024-02-02T21:15:35.473Z,1.13
2024-02-02T21:18:09.223Z,1.20
2024-02-02T21:20:44.578Z,4.78
2024-02-02T21:23:13.042Z,1.02
2024-02-02T21:25:44.403Z,3.00
2024-02-02T21:28:11.837Z,4.55
2024-02-02T21:30:39.658Z,2.22
2024-02-02T21:33:06.665Z,2.83
2024-02-02T21:35:33.756Z,1.88
2024-02-02T21:38:00.614Z,1.23
2024-02-02T21:40:27.460Z,2.33
2024-02-02T21:42:55.476Z,0.50
2024-02-02T21:45:22.752Z,2.15
2024-02-02T21:47:50.121Z,5.05
2024-02-02T21:50:17.651Z,1.10
2024-02-02T21:52:44.685Z,4.82
2024-02-02T21:55:11.629Z,1.38
2024-02-02T21:57:38.712Z,1.13
2024-02-02T22:00:06.342Z,1.80
2024-02-02T22:02:33.266Z,1.70
2024-02-02T22:05:00.885Z,1.70
2024-02-02T22:07:28.099Z,1.30
2024-02-02T22:09:55.530Z,8.30
2024-02-02T22:12:22.684Z,4.00
2024-02-02T22:14:49.811Z,2.03
2024-02-02T22:17:17.344Z,0.47
2024-02-02T22:19:44.623Z,2.28
2024-02-02T22:22:12.221Z,2.33
2024-02-02T22:24:42.985Z,4.80
2024-02-02T22:27:10.502Z,4.53
2024-02-02T22:29:37.641Z,2.10
2024-02-02T22:32:05.054Z,4.82
2024-02-02T22:34:32.152Z,1.13
2024-02-02T22:36:59.145Z,2.47
2024-02-02T22:39:26.159Z,9.57
2024-02-02T22:41:53.109Z,3.10
2024-02-02T22:44:21.107Z,7.90
2024-02-02T22:46:47.998Z,3.72
2024-02-02T22:49:14.994Z,2.92
2024-02-02T22:51:49.607Z,0.98
2024-02-02T22:54:18.345Z,2.20
2024-02-02T22:56:45.351Z,0.65
2024-02-02T22:59:12.327Z,2.03
2024-02-02T23:01:39.146Z,2.75
2024-02-02T23:04:06.542Z,1.58
2024-02-02T23:06:33.858Z,0.85
2024-02-02T23:09:01.165Z,0.80
2024-02-02T23:11:28.210Z,1.65
2024-02-02T23:13:57.835Z,1.45
2024-02-02T23:16:25.028Z,0.63
2024-02-02T23:18:57.024Z,1.20
2024-02-02T23:21:26.072Z,1.55
2024-02-02T23:23:53.345Z,0.47
2024-02-02T23:26:21.413Z,1.48
2024-02-02T23:28:48.343Z,0.90
2024-02-02T23:31:16.642Z,2.78
2024-02-02T23:33:43.915Z,1.25
2024-02-02T23:36:12.807Z,1.70
2024-02-02T23:38:41.860Z,0.60
2024-02-02T23:41:09.088Z,0.70
2024-02-02T23:43:36.326Z,1.63
2024-02-02T23:46:03.966Z,1.67
2024-02-02T23:48:31.017Z,0.90
2024-02-02T23:50:58.885Z,3.97
2024-02-02T23:53:25.805Z,0.65
2024-02-02T23:55:52.710Z,1.02
2024-02-02T23:58:19.573Z,1.65
